sensor_id;sensor_type;location;lat;lon;timestamp;pressure;altitude;pressure_sealevel;temperature;humidity
42601;BME280;28229;48.856;9.088;2023-11-19T00:00:58;97864.84;;;7.57;100.00
42601;BME280;28229;48.856;9.088;2023-11-19T00:03:24;97864.66;;;7.66;100.00
42601;BME280;28229;48.856;9.088;2023-11-19T00:05:50;97862.25;;;7.71;100.00
42601;BME280;28229;48.856;9.088;2023-11-19T00:08:16;97850.16;;;7.70;100.00
42601;BME280;28229;48.856;9.088;2023-11-19T00:10:42;97843.13;;;7.70;100.00
42601;BME280;28229;48.856;9.088;2023-11-19T00:13:08;97846.94;;;7.74;100.00
42601;BME280;28229;48.856;9.088;2023-11-19T00:15:36;97841.31;;;7.77;100.00
42601;BME280;28229;48.856;9.088;2023-11-19T00:18:02;97831.84;;;7.76;100.00
42601;BME280;28229;48.856;9.088;2023-11-19T00:20:31;97822.16;;;7.77;100.00
42601;BME280;28229;48.856;9.088;2023-11-19T00:22:58;97818.94;;;7.75;100.00
42601;BME280;28229;48.856;9.088;2023-11-19T00:25:24;97822.16;;;7.77;100.00
42601;BME280;28229;48.856;9.088;2023-11-19T00:27:51;97822.56;;;7.80;100.00
42601;BME280;28229;48.856;9.088;2023-11-19T00:30:19;97813.91;;;7.80;100.00
42601;BME280;28229;48.856;9.088;2023-11-19T00:32:45;97812.50;;;7.84;100.00
42601;BME280;28229;48.856;9.088;2023-11-19T00:35:11;97816.72;;;7.85;100.00
42601;BME280;28229;48.856;9.088;2023-11-19T00:37:40;97807.44;;;7.89;100.00
42601;BME280;28229;48.856;9.088;2023-11-19T00:40:08;97813.13;;;7.86;100.00
42601;BME280;28229;48.856;9.088;2023-11-19T00:42:36;97814.50;;;7.89;100.00
42601;BME280;28229;48.856;9.088;2023-11-19T00:45:07;97812.28;;;7.92;100.00
42601;BME280;28229;48.856;9.088;2023-11-19T00:47:35;97802.81;;;7.91;100.00
42601;BME280;28229;48.856;9.088;2023-11-19T00:50:05;97802.81;;;7.91;100.00
42601;BME280;28229;48.856;9.088;2023-11-19T00:52:31;97787.28;;;7.96;100.00
42601;BME280;28229;48.856;9.088;2023-11-19T00:55:04;97792.13;;;8.06;100.00
42601;BME280;28229;48.856;9.088;2023-11-19T00:57:31;97781.44;;;8.08;100.00
42601;BME280;28229;48.856;9.088;2023-11-19T00:59:59;97795.75;;;8.12;100.00
42601;BME280;28229;48.856;9.088;2023-11-19T01:02:25;97798.34;;;8.18;100.00
42601;BME280;28229;48.856;9.088;2023-11-19T01:04:51;97800.34;;;8.30;100.00
42601;BME280;28229;48.856;9.088;2023-11-19T01:07:18;97796.09;;;8.29;100.00
42601;BME280;28229;48.856;9.088;2023-11-19T01:09:44;97792.47;;;8.23;100.00
42601;BME280;28229;48.856;9.088;2023-11-19T01:12:10;97786.44;;;8.29;100.00
42601;BME280;28229;48.856;9.088;2023-11-19T01:14:36;97791.03;;;8.34;100.00
42601;BME280;28229;48.856;9.088;2023-11-19T01:17:03;97793.66;;;8.41;100.00
42601;BME280;28229;48.856;9.088;2023-11-19T01:19:30;97790.44;;;8.38;100.00
42601;BME280;28229;48.856;9.088;2023-11-19T01:21:58;97783.78;;;8.43;100.00
42601;BME280;28229;48.856;9.088;2023-11-19T01:24:24;97778.94;;;8.39;100.00
42601;BME280;28229;48.856;9.088;2023-11-19T01:26:54;97783.00;;;8.42;100.00
42601;BME280;28229;48.856;9.088;2023-11-19T01:29:20;97777.16;;;8.47;100.00
42601;BME280;28229;48.856;9.088;2023-11-19T01:31:47;97775.91;;;8.49;100.00
42601;BME280;28229;48.856;9.088;2023-11-19T01:34:13;97781.13;;;8.56;100.00
42601;BME280;28229;48.856;9.088;2023-11-19T01:36:39;97767.63;;;8.52;100.00
42601;BME280;28229;48.856;9.088;2023-11-19T01:39:06;97767.19;;;8.55;100.00
42601;BME280;28229;48.856;9.088;2023-11-19T01:41:35;97769.00;;;8.62;100.00
42601;BME280;28229;48.856;9.088;2023-11-19T01:44:02;97769.63;;;8.57;100.00
42601;BME280;28229;48.856;9.088;2023-11-19T01:46:29;97773.47;;;8.61;100.00
42601;BME280;28229;48.856;9.088;2023-11-19T01:48:56;97774.22;;;8.68;100.00
42601;BME280;28229;48.856;9.088;2023-11-19T01:51:23;97774.41;;;8.73;100.00
42601;BME280;28229;48.856;9.088;2023-11-19T01:53:49;97774.63;;;8.72;100.00
42601;BME280;28229;48.856;9.088;2023-11-19T01:56:15;97773.78;;;8.71;100.00
42601;BME280;28229;48.856;9.088;2023-11-19T01:58:43;97766.94;;;8.70;100.00
42601;BME280;28229;48.856;9.088;2023-11-19T02:04:37;97768.53;;;8.78;100.00
42601;BME280;28229;48.856;9.088;2023-11-19T02:07:10;97769.31;;;8.79;100.00
42601;BME280;28229;48.856;9.088;2023-11-19T02:10:10;97766.88;;;8.84;100.00
42601;BME280;28229;48.856;9.088;2023-11-19T02:13:12;97762.47;;;8.77;100.00
42601;BME280;28229;48.856;9.088;2023-11-19T02:15:41;97762.66;;;8.83;100.00
42601;BME280;28229;48.856;9.088;2023-11-19T02:18:26;97754.41;;;8.79;100.00
42601;BME280;28229;48.856;9.088;2023-11-19T02:20:59;97751.56;;;8.81;100.00
42601;BME280;28229;48.856;9.088;2023-11-19T02:23:27;97744.88;;;8.85;100.00
42601;BME280;28229;48.856;9.088;2023-11-19T02:26:08;97741.84;;;8.88;100.00
42601;BME280;28229;48.856;9.088;2023-11-19T02:28:36;97746.72;;;8.84;100.00
42601;BME280;28229;48.856;9.088;2023-11-19T02:31:03;97741.41;;;8.91;100.00
42601;BME280;28229;48.856;9.088;2023-11-19T02:33:30;97746.06;;;8.89;100.00
42601;BME280;28229;48.856;9.088;2023-11-19T02:35:56;97745.28;;;8.88;100.00
42601;BME280;28229;48.856;9.088;2023-11-19T02:38:23;97751.09;;;8.90;100.00
42601;BME280;28229;48.856;9.088;2023-11-19T02:40:49;97751.91;;;8.91;100.00
42601;BME280;28229;48.856;9.088;2023-11-19T02:43:15;97754.69;;;8.96;100.00
42601;BME280;28229;48.856;9.088;2023-11-19T02:45:41;97742.22;;;8.91;100.00
42601;BME280;28229;48.856;9.088;2023-11-19T02:48:09;97751.50;;;8.94;100.00
42601;BME280;28229;48.856;9.088;2023-11-19T02:50:36;97753.50;;;8.99;100.00
42601;BME280;28229;48.856;9.088;2023-11-19T02:53:02;97757.09;;;9.04;100.00
42601;BME280;28229;48.856;9.088;2023-11-19T02:55:29;97751.25;;;9.02;100.00
42601;BME280;28229;48.856;9.088;2023-11-19T02:58:00;97745.41;;;9.00;100.00
42601;BME280;28229;48.856;9.088;2023-11-19T03:00:26;97745.41;;;9.00;100.00
42601;BME280;28229;48.856;9.088;2023-11-19T03:03:03;97747.00;;;9.01;100.00
42601;BME280;28229;48.856;9.088;2023-11-19T03:05:44;97755.06;;;9.06;100.00
42601;BME280;28229;48.856;9.088;2023-11-19T03:08:11;97752.44;;;9.06;100.00
42601;BME280;28229;48.856;9.088;2023-11-19T03:10:38;97746.59;;;9.04;100.00
42601;BME280;28229;48.856;9.088;2023-11-19T03:13:04;97750.19;;;9.10;100.00
42601;BME280;28229;48.856;9.088;2023-11-19T03:15:33;97758.66;;;9.12;100.00
42601;BME280;28229;48.856;9.088;2023-11-19T03:18:02;97755.00;;;9.13;100.00
42601;BME280;28229;48.856;9.088;2023-11-19T03:20:32;97750.97;;;9.10;100.00
42601;BME280;28229;48.856;9.088;2023-11-19T03:22:58;97752.00;;;9.09;100.00
42601;BME280;28229;48.856;9.088;2023-11-19T03:25:27;97747.94;;;9.13;100.00
42601;BME280;28229;48.856;9.088;2023-11-19T03:28:00;97746.50;;;9.18;100.00
42601;BME280;28229;48.856;9.088;2023-11-19T03:30:30;97744.31;;;9.14;100.00
42601;BME280;28229;48.856;9.088;2023-11-19T03:32:57;97731.56;;;9.18;100.00
42601;BME280;28229;48.856;9.088;2023-11-19T03:35:24;97734.19;;;9.18;100.00
42601;BME280;28229;48.856;9.088;2023-11-19T03:37:50;97734.59;;;9.15;100.00
42601;BME280;28229;48.856;9.088;2023-11-19T03:40:18;97732.38;;;9.19;100.00
42601;BME280;28229;48.856;9.088;2023-11-19T03:42:46;97735.56;;;9.21;100.00
42601;BME280;28229;48.856;9.088;2023-11-19T03:45:12;97733.56;;;9.16;100.00
42601;BME280;28229;48.856;9.088;2023-11-19T03:47:41;97741.25;;;9.18;100.00
42601;BME280;28229;48.856;9.088;2023-11-19T03:50:08;97737.19;;;9.22;100.00
42601;BME280;28229;48.856;9.088;2023-11-19T03:52:35;97727.69;;;9.21;100.00
42601;BME280;28229;48.856;9.088;2023-11-19T03:55:01;97724.28;;;9.20;100.00
42601;BME280;28229;48.856;9.088;2023-11-19T03:57:29;97703.22;;;9.27;100.00
42601;BME280;28229;48.856;9.088;2023-11-19T03:59:55;97704.81;;;9.28;100.00
42601;BME280;28229;48.856;9.088;2023-11-19T04:02:21;97696.78;;;9.23;100.00
42601;BME280;28229;48.856;9.088;2023-11-19T04:04:47;97692.56;;;9.22;100.00
42601;BME280;28229;48.856;9.088;2023-11-19T04:07:14;97700.59;;;9.27;100.00
42601;BME280;28229;48.856;9.088;2023-11-19T04:09:41;97698.72;;;9.34;100.00
42601;BME280;28229;48.856;9.088;2023-11-19T04:12:07;97706.16;;;9.37;100.00
42601;BME280;28229;48.856;9.088;2023-11-19T04:14:34;97706.38;;;9.36;100.00
42601;BME280;28229;48.856;9.088;2023-11-19T04:17:00;97708.19;;;9.35;100.00
42601;BME280;28229;48.856;9.088;2023-11-19T04:19:26;97707.94;;;9.43;100.00
42601;BME280;28229;48.856;9.088;2023-11-19T04:21:52;97713.19;;;9.43;100.00
42601;BME280;28229;48.856;9.088;2023-11-19T04:24:18;97718.00;;;9.46;100.00
42601;BME280;28229;48.856;9.088;2023-11-19T04:26:45;97722.66;;;9.44;100.00
42601;BME280;28229;48.856;9.088;2023-11-19T04:29:14;97711.16;;;9.45;100.00
42601;BME280;28229;48.856;9.088;2023-11-19T04:31:41;97704.03;;;9.52;100.00
42601;BME280;28229;48.856;9.088;2023-11-19T04:34:07;97708.25;;;9.53;100.00
42601;BME280;28229;48.856;9.088;2023-11-19T04:36:34;97705.25;;;9.50;100.00
42601;BME280;28229;48.856;9.088;2023-11-19T04:39:00;97713.50;;;9.53;100.00
42601;BME280;28229;48.856;9.088;2023-11-19T04:41:27;97713.50;;;9.53;100.00
42601;BME280;28229;48.856;9.088;2023-11-19T04:43:54;97721.53;;;9.59;100.00
42601;BME280;28229;48.856;9.088;2023-11-19T04:46:20;97715.06;;;9.61;100.00
42601;BME280;28229;48.856;9.088;2023-11-19T04:48:47;97712.47;;;9.55;100.00
42601;BME280;28229;48.856;9.088;2023-11-19T04:51:13;97710.81;;;9.60;100.00
42601;BME280;28229;48.856;9.088;2023-11-19T04:53:39;97707.19;;;9.61;100.00
42601;BME280;28229;48.856;9.088;2023-11-19T04:56:09;97726.16;;;9.63;100.00
42601;BME280;28229;48.856;9.088;2023-11-19T04:58:35;97728.56;;;9.65;100.00
42601;BME280;28229;48.856;9.088;2023-11-19T05:01:04;97719.44;;;9.67;100.00
42601;BME280;28229;48.856;9.088;2023-11-19T05:03:31;97709.75;;;9.68;100.00
42601;BME280;28229;48.856;9.088;2023-11-19T05:05:58;97713.97;;;9.69;100.00
42601;BME280;28229;48.856;9.088;2023-11-19T05:08:24;97709.66;;;9.75;100.00
42601;BME280;28229;48.856;9.088;2023-11-19T05:10:50;97714.13;;;9.74;100.00
42601;BME280;28229;48.856;9.088;2023-11-19T05:13:19;97719.31;;;9.81;100.00
42601;BME280;28229;48.856;9.088;2023-11-19T05:15:45;97717.34;;;9.76;100.00
42601;BME280;28229;48.856;9.088;2023-11-19T05:18:11;97718.13;;;9.77;100.00
42601;BME280;28229;48.856;9.088;2023-11-19T05:20:37;97731.50;;;9.75;100.00
42601;BME280;28229;48.856;9.088;2023-11-19T05:23:03;97726.84;;;9.77;100.00
42601;BME280;28229;48.856;9.088;2023-11-19T05:25:29;97733.03;;;9.83;100.00
42601;BME280;28229;48.856;9.088;2023-11-19T05:27:55;97728.59;;;9.83;100.00
42601;BME280;28229;48.856;9.088;2023-11-19T05:30:21;97731.78;;;9.85;100.00
42601;BME280;28229;48.856;9.088;2023-11-19T05:32:48;97730.56;;;9.88;100.00
42601;BME280;28229;48.856;9.088;2023-11-19T05:35:14;97724.06;;;9.90;100.00
42601;BME280;28229;48.856;9.088;2023-11-19T05:37:40;97720.28;;;9.86;100.00
42601;BME280;28229;48.856;9.088;2023-11-19T05:40:07;97720.28;;;9.86;100.00
42601;BME280;28229;48.856;9.088;2023-11-19T05:42:41;97719.84;;;9.89;100.00
42601;BME280;28229;48.856;9.088;2023-11-19T05:45:09;97705.50;;;9.85;100.00
42601;BME280;28229;48.856;9.088;2023-11-19T05:47:36;97698.81;;;9.89;100.00
42601;BME280;28229;48.856;9.088;2023-11-19T05:50:02;97706.72;;;9.89;100.00
42601;BME280;28229;48.856;9.088;2023-11-19T05:52:29;97695.38;;;9.89;100.00
42601;BME280;28229;48.856;9.088;2023-11-19T05:55:02;97685.97;;;10.00;100.00
42601;BME280;28229;48.856;9.088;2023-11-19T05:57:39;97696.94;;;9.97;100.00
42601;BME280;28229;48.856;9.088;2023-11-19T06:00:07;97698.88;;;10.01;100.00
42601;BME280;28229;48.856;9.088;2023-11-19T06:02:37;97696.84;;;10.03;100.00
42601;BME280;28229;48.856;9.088;2023-11-19T06:05:05;97706.56;;;10.03;100.00
42601;BME280;28229;48.856;9.088;2023-11-19T06:07:35;97707.13;;;10.05;100.00
42601;BME280;28229;48.856;9.088;2023-11-19T06:10:02;97715.22;;;10.03;100.00
42601;BME280;28229;48.856;9.088;2023-11-19T06:12:33;97715.84;;;10.05;100.00
42601;BME280;28229;48.856;9.088;2023-11-19T06:15:07;97733.19;;;10.06;100.00
42601;BME280;28229;48.856;9.088;2023-11-19T06:17:34;97725.09;;;10.08;100.00
42601;BME280;28229;48.856;9.088;2023-11-19T06:20:00;97735.63;;;10.08;100.00
42601;BME280;28229;48.856;9.088;2023-11-19T06:22:26;97730.34;;;10.08;100.00
42601;BME280;28229;48.856;9.088;2023-11-19T06:24:53;97729.19;;;10.04;100.00
42601;BME280;28229;48.856;9.088;2023-11-19T06:27:20;97726.00;;;10.02;100.00
42601;BME280;28229;48.856;9.088;2023-11-19T06:29:47;97720.38;;;9.98;100.00
42601;BME280;28229;48.856;9.088;2023-11-19T06:32:13;97730.34;;;10.08;100.00
42601;BME280;28229;48.856;9.088;2023-11-19T06:34:48;97736.25;;;10.03;100.00
42601;BME280;28229;48.856;9.088;2023-11-19T06:37:17;97735.63;;;10.08;100.00
42601;BME280;28229;48.856;9.088;2023-11-19T06:39:43;97731.97;;;10.09;100.00
42601;BME280;28229;48.856;9.088;2023-11-19T06:42:10;97741.59;;;10.15;100.00
42601;BME280;28229;48.856;9.088;2023-11-19T06:44:36;97737.97;;;10.16;100.00
42601;BME280;28229;48.856;9.088;2023-11-19T06:47:02;97741.75;;;10.20;100.00
42601;BME280;28229;48.856;9.088;2023-11-19T06:49:28;97740.75;;;10.21;100.00
42601;BME280;28229;48.856;9.088;2023-11-19T06:51:54;97743.66;;;10.32;100.00
42601;BME280;28229;48.856;9.088;2023-11-19T06:54:21;97749.50;;;10.34;100.00
42601;BME280;28229;48.856;9.088;2023-11-19T06:56:48;97748.28;;;10.36;100.00
42601;BME280;28229;48.856;9.088;2023-11-19T06:59:14;97744.19;;;10.40;100.00
42601;BME280;28229;48.856;9.088;2023-11-19T07:01:40;97740.31;;;10.43;100.00
42601;BME280;28229;48.856;9.088;2023-11-19T07:04:12;97735.63;;;10.45;100.00
42601;BME280;28229;48.856;9.088;2023-11-19T07:06:39;97736.06;;;10.42;100.00
42601;BME280;28229;48.856;9.088;2023-11-19T07:09:09;97730.97;;;10.47;100.00
42601;BME280;28229;48.856;9.088;2023-11-19T07:11:41;97737.91;;;10.41;100.00
42601;BME280;28229;48.856;9.088;2023-11-19T07:14:27;97737.22;;;10.46;100.00
42601;BME280;28229;48.856;9.088;2023-11-19T07:16:54;97741.13;;;10.43;100.00
42601;BME280;28229;48.856;9.088;2023-11-19T07:19:21;97738.56;;;10.37;100.00
42601;BME280;28229;48.856;9.088;2023-11-19T07:21:47;97752.84;;;10.41;100.00
42601;BME280;28229;48.856;9.088;2023-11-19T07:24:14;97745.59;;;10.43;100.00
42601;BME280;28229;48.856;9.088;2023-11-19T07:26:44;97751.06;;;10.41;100.00
42601;BME280;28229;48.856;9.088;2023-11-19T07:29:10;97766.00;;;10.41;100.00
42601;BME280;28229;48.856;9.088;2023-11-19T07:31:36;97766.75;;;10.48;100.00
42601;BME280;28229;48.856;9.088;2023-11-19T07:34:03;97780.50;;;10.50;100.00
42601;BME280;28229;48.856;9.088;2023-11-19T07:36:29;97776.81;;;10.51;100.00
42601;BME280;28229;48.856;9.088;2023-11-19T07:38:56;97779.31;;;10.46;100.00
42601;BME280;28229;48.856;9.088;2023-11-19T07:41:23;97773.63;;;10.49;100.00
42601;BME280;28229;48.856;9.088;2023-11-19T07:43:51;97778.22;;;10.54;100.00
42601;BME280;28229;48.856;9.088;2023-11-19T07:46:18;97774.78;;;10.53;100.00
42601;BME280;28229;48.856;9.088;2023-11-19T07:48:45;97782.44;;;10.55;100.00
42601;BME280;28229;48.856;9.088;2023-11-19T07:51:13;97786.03;;;10.60;100.00
42601;BME280;28229;48.856;9.088;2023-11-19T07:53:40;97786.34;;;10.52;100.00
42601;BME280;28229;48.856;9.088;2023-11-19T07:56:08;97786.91;;;10.54;100.00
42601;BME280;28229;48.856;9.088;2023-11-19T07:58:34;97787.63;;;10.61;100.00
42601;BME280;28229;48.856;9.088;2023-11-19T08:01:00;97786.75;;;10.67;100.00
42601;BME280;28229;48.856;9.088;2023-11-19T08:03:28;97787.34;;;10.70;100.00
42601;BME280;28229;48.856;9.088;2023-11-19T08:06:06;97782.66;;;10.72;100.00
42601;BME280;28229;48.856;9.088;2023-11-19T08:08:33;97788.34;;;10.69;100.00
42601;BME280;28229;48.856;9.088;2023-11-19T08:11:00;97793.19;;;10.72;100.00
42601;BME280;28229;48.856;9.088;2023-11-19T08:13:26;97780.59;;;10.74;100.00
42601;BME280;28229;48.856;9.088;2023-11-19T08:15:53;97779.56;;;10.75;100.00
42601;BME280;28229;48.856;9.088;2023-11-19T08:18:19;97779.72;;;10.80;100.00
42601;BME280;28229;48.856;9.088;2023-11-19T08:20:45;97785.13;;;10.85;100.00
42601;BME280;28229;48.856;9.088;2023-11-19T08:23:13;97782.03;;;10.88;100.00
42601;BME280;28229;48.856;9.088;2023-11-19T08:25:39;97792.13;;;10.91;100.00
42601;BME280;28229;48.856;9.088;2023-11-19T08:28:05;97791.44;;;10.96;100.00
42601;BME280;28229;48.856;9.088;2023-11-19T08:30:31;97793.06;;;10.97;100.00
42601;BME280;28229;48.856;9.088;2023-11-19T08:32:57;97790.34;;;11.03;100.00
42601;BME280;28229;48.856;9.088;2023-11-19T08:35:25;97795.16;;;11.07;100.00
42601;BME280;28229;48.856;9.088;2023-11-19T08:37:51;97798.34;;;11.09;100.00
42601;BME280;28229;48.856;9.088;2023-11-19T08:40:18;97798.28;;;11.15;100.00
42601;BME280;28229;48.856;9.088;2023-11-19T08:42:45;97811.34;;;11.22;100.00
42601;BME280;28229;48.856;9.088;2023-11-19T08:45:12;97808.28;;;11.25;100.00
42601;BME280;28229;48.856;9.088;2023-11-19T08:47:38;97808.72;;;11.22;100.00
42601;BME280;28229;48.856;9.088;2023-11-19T08:50:06;97794.28;;;11.24;100.00
42601;BME280;28229;48.856;9.088;2023-11-19T08:52:32;97788.38;;;11.29;100.00
42601;BME280;28229;48.856;9.088;2023-11-19T08:54:58;97788.38;;;11.29;100.00
42601;BME280;28229;48.856;9.088;2023-11-19T08:57:25;97793.19;;;11.32;100.00
42601;BME280;28229;48.856;9.088;2023-11-19T08:59:51;97785.06;;;11.34;100.00
42601;BME280;28229;48.856;9.088;2023-11-19T09:02:17;97791.34;;;11.33;100.00
42601;BME280;28229;48.856;9.088;2023-11-19T09:04:44;97789.78;;;11.43;100.00
42601;BME280;28229;48.856;9.088;2023-11-19T09:07:10;97801.59;;;11.65;100.00
42601;BME280;28229;48.856;9.088;2023-11-19T09:09:36;97794.88;;;11.80;100.00
42601;BME280;28229;48.856;9.088;2023-11-19T09:12:03;97798.88;;;11.83;100.00
42601;BME280;28229;48.856;9.088;2023-11-19T09:14:30;97790.75;;;11.85;100.00
42601;BME280;28229;48.856;9.088;2023-11-19T09:16:56;97801.84;;;11.87;100.00
42601;BME280;28229;48.856;9.088;2023-11-19T09:19:23;97807.69;;;11.89;100.00
42601;BME280;28229;48.856;9.088;2023-11-19T09:21:49;97806.69;;;11.90;100.00
42601;BME280;28229;48.856;9.088;2023-11-19T09:24:15;97805.69;;;11.91;100.00
42601;BME280;28229;48.856;9.088;2023-11-19T09:26:41;97800.63;;;12.01;100.00
42601;BME280;28229;48.856;9.088;2023-11-19T09:29:08;97809.94;;;12.04;100.00
42601;BME280;28229;48.856;9.088;2023-11-19T09:31:34;97822.66;;;12.07;100.00
42601;BME280;28229;48.856;9.088;2023-11-19T09:34:01;97818.75;;;12.09;100.00
42601;BME280;28229;48.856;9.088;2023-11-19T09:36:27;97827.00;;;12.13;100.00
42601;BME280;28229;48.856;9.088;2023-11-19T09:38:53;97822.06;;;12.28;100.00
42601;BME280;28229;48.856;9.088;2023-11-19T09:41:19;97807.16;;;12.34;100.00
42601;BME280;28229;48.856;9.088;2023-11-19T09:43:45;97802.19;;;12.49;100.00
42601;BME280;28229;48.856;9.088;2023-11-19T09:46:13;97814.91;;;12.64;100.00
42601;BME280;28229;48.856;9.088;2023-11-19T09:48:42;97804.63;;;12.80;100.00
42601;BME280;28229;48.856;9.088;2023-11-19T09:51:09;97807.97;;;13.16;97.58
42601;BME280;28229;48.856;9.088;2023-11-19T09:53:37;97808.75;;;13.45;96.43
42601;BME280;28229;48.856;9.088;2023-11-19T09:56:04;97807.34;;;13.71;95.17
42601;BME280;28229;48.856;9.088;2023-11-19T09:58:31;97806.84;;;13.91;93.29
42601;BME280;28229;48.856;9.088;2023-11-19T10:00:59;97801.22;;;14.04;92.34
42601;BME280;28229;48.856;9.088;2023-11-19T10:03:31;97802.66;;;14.12;90.75
42601;BME280;28229;48.856;9.088;2023-11-19T10:05:59;97811.47;;;14.18;89.43
42601;BME280;28229;48.856;9.088;2023-11-19T10:08:27;97818.34;;;14.19;89.85
42601;BME280;28229;48.856;9.088;2023-11-19T10:10:53;97813.56;;;14.16;87.70
42601;BME280;28229;48.856;9.088;2023-11-19T10:13:19;97815.06;;;14.12;86.40
42601;BME280;28229;48.856;9.088;2023-11-19T10:15:52;97809.78;;;14.12;85.98
42601;BME280;28229;48.856;9.088;2023-11-19T10:18:18;97806.66;;;14.15;84.76
42601;BME280;28229;48.856;9.088;2023-11-19T10:20:49;97805.13;;;14.19;85.32
42601;BME280;28229;48.856;9.088;2023-11-19T10:23:15;97807.28;;;14.22;83.65
42601;BME280;28229;48.856;9.088;2023-11-19T10:25:41;97808.38;;;14.65;83.66
42601;BME280;28229;48.856;9.088;2023-11-19T10:28:07;97808.34;;;14.82;82.08
42601;BME280;28229;48.856;9.088;2023-11-19T10:30:33;97817.63;;;14.84;80.07
42601;BME280;28229;48.856;9.088;2023-11-19T10:35:35;97809.59;;;14.74;81.53
42601;BME280;28229;48.856;9.088;2023-11-19T10:38:13;97806.31;;;14.89;79.85
42601;BME280;28229;48.856;9.088;2023-11-19T10:40:40;97801.78;;;14.90;78.99
42601;BME280;28229;48.856;9.088;2023-11-19T10:43:07;97802.81;;;14.83;78.83
42601;BME280;28229;48.856;9.088;2023-11-19T10:45:36;97795.88;;;14.82;77.48
42601;BME280;28229;48.856;9.088;2023-11-19T10:48:03;97806.97;;;14.79;75.92
42601;BME280;28229;48.856;9.088;2023-11-19T10:50:37;97811.59;;;14.89;76.50
42601;BME280;28229;48.856;9.088;2023-11-19T10:53:04;97809.06;;;14.77;76.30
42601;BME280;28229;48.856;9.088;2023-11-19T10:55:35;97810.56;;;14.68;76.61
42601;BME280;28229;48.856;9.088;2023-11-19T10:58:10;97811.34;;;14.69;76.81
42601;BME280;28229;48.856;9.088;2023-11-19T11:03:09;97806.88;;;14.52;76.96
42601;BME280;28229;48.856;9.088;2023-11-19T11:05:37;97802.59;;;14.46;76.02
42601;BME280;28229;48.856;9.088;2023-11-19T11:08:06;97797.47;;;14.39;75.20
42601;BME280;28229;48.856;9.088;2023-11-19T11:10:35;97802.47;;;14.19;75.60
42601;BME280;28229;48.856;9.088;2023-11-19T11:13:06;97802.97;;;14.16;76.31
42601;BME280;28229;48.856;9.088;2023-11-19T11:15:32;97802.41;;;14.14;77.87
42601;BME280;28229;48.856;9.088;2023-11-19T11:18:01;97801.84;;;14.12;77.80
42601;BME280;28229;48.856;9.088;2023-11-19T11:20:29;97797.38;;;14.12;78.41
42601;BME280;28229;48.856;9.088;2023-11-19T11:31:53;97783.00;;;14.25;76.39
42601;BME280;28229;48.856;9.088;2023-11-19T11:34:58;97776.91;;;14.46;75.78
42601;BME280;28229;48.856;9.088;2023-11-19T11:37:32;97774.25;;;14.63;74.56
42601;BME280;28229;48.856;9.088;2023-11-19T11:40:01;97763.13;;;14.89;74.73
42601;BME280;28229;48.856;9.088;2023-11-19T11:42:33;97775.31;;;14.90;73.06
42601;BME280;28229;48.856;9.088;2023-11-19T11:45:06;97768.63;;;15.09;72.85
42601;BME280;28229;48.856;9.088;2023-11-19T11:50:09;97760.03;;;15.56;69.96
42601;BME280;28229;48.856;9.088;2023-11-19T11:55:37;97764.03;;;15.96;69.99
42601;BME280;28229;48.856;9.088;2023-11-19T11:58:19;97763.00;;;15.97;70.41
42601;BME280;28229;48.856;9.088;2023-11-19T12:00:47;97759.00;;;16.00;70.96
42601;BME280;28229;48.856;9.088;2023-11-19T12:03:13;97758.22;;;15.99;70.72
42601;BME280;28229;48.856;9.088;2023-11-19T12:05:44;97757.91;;;15.91;68.37
42601;BME280;28229;48.856;9.088;2023-11-19T12:08:12;97762.91;;;15.87;69.11
42601;BME280;28229;48.856;9.088;2023-11-19T12:10:48;97753.06;;;15.83;69.28
42601;BME280;28229;48.856;9.088;2023-11-19T12:13:16;97772.34;;;15.73;70.38
42601;BME280;28229;48.856;9.088;2023-11-19T12:20:50;97761.13;;;15.01;69.35
42601;BME280;28229;48.856;9.088;2023-11-19T12:23:16;97749.66;;;14.90;70.44
42601;BME280;28229;48.856;9.088;2023-11-19T12:25:42;97749.41;;;14.70;69.86
42601;BME280;28229;48.856;9.088;2023-11-19T12:28:15;97753.31;;;14.62;70.14
42601;BME280;28229;48.856;9.088;2023-11-19T12:30:43;97738.94;;;14.58;69.84
42601;BME280;28229;48.856;9.088;2023-11-19T12:33:14;97724.72;;;14.64;68.20
42601;BME280;28229;48.856;9.088;2023-11-19T12:35:47;97729.72;;;14.88;69.21
42601;BME280;28229;48.856;9.088;2023-11-19T12:38:20;97711.56;;;15.29;67.98
42601;BME280;28229;48.856;9.088;2023-11-19T12:40:47;97713.72;;;15.32;66.21
42601;BME280;28229;48.856;9.088;2023-11-19T12:43:27;97708.00;;;15.50;65.60
42601;BME280;28229;48.856;9.088;2023-11-19T12:45:54;97711.22;;;15.57;65.08
42601;BME280;28229;48.856;9.088;2023-11-19T12:48:20;97714.63;;;15.85;63.85
42601;BME280;28229;48.856;9.088;2023-11-19T12:50:57;97707.81;;;15.99;62.84
42601;BME280;28229;48.856;9.088;2023-11-19T12:53:24;97710.28;;;16.22;61.56
42601;BME280;28229;48.856;9.088;2023-11-19T12:55:52;97706.38;;;16.29;61.20
42601;BME280;28229;48.856;9.088;2023-11-19T12:58:35;97707.91;;;16.20;62.08
42601;BME280;28229;48.856;9.088;2023-11-19T13:01:06;97710.13;;;16.39;60.89
42601;BME280;28229;48.856;9.088;2023-11-19T13:03:34;97708.03;;;16.51;61.05
42601;BME280;28229;48.856;9.088;2023-11-19T13:06:05;97702.19;;;16.54;60.64
42601;BME280;28229;48.856;9.088;2023-11-19T13:08:53;97708.81;;;16.51;60.89
42601;BME280;28229;48.856;9.088;2023-11-19T13:11:31;97716.84;;;16.77;60.73
42601;BME280;28229;48.856;9.088;2023-11-19T13:14:02;97715.03;;;16.88;60.10
42601;BME280;28229;48.856;9.088;2023-11-19T13:16:36;97719.31;;;16.99;59.81
42601;BME280;28229;48.856;9.088;2023-11-19T13:19:03;97706.28;;;16.98;58.53
42601;BME280;28229;48.856;9.088;2023-11-19T13:21:29;97713.38;;;16.66;57.92
42601;BME280;28229;48.856;9.088;2023-11-19T13:23:56;97718.66;;;16.56;58.12
42601;BME280;28229;48.856;9.088;2023-11-19T13:26:22;97709.59;;;16.42;57.34
42601;BME280;28229;48.856;9.088;2023-11-19T13:28:49;97711.34;;;16.15;57.85
42601;BME280;28229;48.856;9.088;2023-11-19T13:31:15;97697.19;;;15.99;58.50